Skip Navigation LinksHome page > Weather > Current weather Skip Navigation Links

Current Weather

Boire Field, Nashua, N.H.

For information only: do not use for flight planning or navigation.
Latest weather
Observation time Friday, February 21, 2020 2:56 AM EST
Local time Friday, February 21, 2020 3:43 AM EST
Flight conditions Visual Meteorological Conditions
Winds
Wind speed calm
Visibility 10 mi.
Sky condition
Ceiling unlimited
Sky clear
Temperature 10°F
Dewpoint 2°F
Altimeter 30.45 in.Hg
Derived measurements
Relative humidity 69%
Wind chill 10°F
Density altitude -3802 ft.
Sea-level pressure 30.48 in.Hg
Remarks
Fully automated report.
Automated weather observing station with precipitation discriminator.
METAR KASH 210756Z AUTO 00000KT 10SM CLR M12/M17 A3045 RMK AO2 SLP320 T11221167

Settings

Location code

InnerDrive.Weather 4.0.6770.0 Release CLR 4.0.30319.42000
Copyright ©2018 Inner Drive Technology. All rights reserved. Portions Copyright ©1986-2018 David Braverman.

Find weather

Site navigation


Skip Navigation Links

Place info

Page info

PayPal - The safer, easier way to pay online!

Return home.

Copyright ©2020 Inner Drive Technology. Purveyors of fine, hand-crafted computer software. Page printed 2020-02-21T08:43:57 UTC.